Istanbul, Turkey

5:26 AM +03 on February 23, 2017 (GMT +0300)
Ataturk | | Change Station

Elev 121 ft 40.97 °N, 28.82 °E | Updated 36 minutes ago

Clear
Clear
46 °F
Feels Like 42 °F
N
10
Wind Variable Wind from WSW

Today
High -- | Low -- °F
--% Chance of Precip.
Yesterday
High -- | Low -- °F
Precip. -- in
Pressure 30.04 in
Visibility -9999.0 miles
Clouds
Windchill 42 °F
Dew Point 41 °F
Humidity 81%
Rainfall 0.00 in
Snow Depth Not available.
7:47 AM 6:48 PM
Waning Crescent, 13% visible
METAR LTBA 230150Z 24009KT CAVOK 08/05 Q1017 NOSIG RMK RWY17L 22012KT 150V240 RWY05 24007KT RWY23 24011KT
Pressure 30.04 in
Visibility -9999.0 miles
Clouds
Windchill 42 °F
Dew Point 41 °F
Humidity 81%
Rainfall 0.00 in
Snow Depth Not available.
7:47 AM 6:48 PM
Waning Crescent, 13% visible
METAR LTBA 230150Z 24009KT CAVOK 08/05 Q1017 NOSIG RMK RWY17L 22012KT 150V240 RWY05 24007KT RWY23 24011KT

Get Your Daily Forecast Email!

Thanks for signing up!

Be on the lookout for a verification email in your inbox.

You'll start receiving the daily forecast at 8 AM.

×

10-Day Weather Forecast

×

Almanac

Astronomy

Feb. 23, 2017 Rise Set
Actual Time
Civil Twilight
Nautical Twilight
Astronomical Twilight
Moon
Length of Visible Light
Length of Day
Tomorrow will be .
, % of the Moon is Illuminated

Today's Extremes

Country Highs Country Lows

Community

WunderPhotos

Upload Photos

1,962,540 photos uploaded!

WunderBlog® & News

Nearby

Air Quality

  Air Quality AQ Index Pollutant
Not available.

Snow Depth

Station Depth Elevation

Earthquake Activity

City Distance Mag. Time & Date
Minimum magnitude displayed is 2.5.

Coastal Water Temperatures

Place Temperature

Stations

Nearby Weather Stations

Station Location Temp. Windchill Dew Point Humidity Wind Precip. Elev Updated Type